Time;durP1;ratioP1;P1;durP2;ratioP2;P2;SDS_P1;SDS_P2;PMS_P1;PMS_P2;Temp;Humidity;BMP_temperature;BMP_pressure;BME280_temperature;BME280_humidity;BME280_pressure;Samples;Min_cycle;Max_cycle;Signal;HPM_P1;HPM_P2
2021/12/01 00:02:02;;;;;;;1.33;1.23;;;;;;;5.59;100.00;99247.53;5005996;28;20236;-60
2021/12/01 00:04:27;;;;;;;1.73;1.63;;;;;;;5.61;100.00;99238.09;5015113;28;20197;-60
2021/12/01 00:06:53;;;;;;;1.60;1.27;;;;;;;5.73;100.00;99249.44;5015014;28;20168;-60
2021/12/01 00:09:18;;;;;;;1.37;1.27;;;;;;;5.66;100.00;99251.44;5030294;28;20191;-60
2021/12/01 00:11:47;;;;;;;1.50;1.40;;;;;;;5.66;100.00;99246.34;5017755;28;20265;-60
2021/12/01 00:14:13;;;;;;;1.40;1.30;;;;;;;5.75;100.00;99239.97;5016545;28;20567;-60
2021/12/01 00:16:38;;;;;;;1.33;1.30;;;;;;;5.68;100.00;99236.09;5016144;28;20218;-60
2021/12/01 00:19:03;;;;;;;1.50;1.27;;;;;;;5.66;100.00;99231.03;5017792;28;20624;-60
2021/12/01 00:21:28;;;;;;;1.67;1.40;;;;;;;5.67;100.00;99226.78;5015624;28;20222;-60
2021/12/01 00:23:54;;;;;;;1.30;1.23;;;;;;;5.70;100.00;99229.16;5005710;28;20174;-60
2021/12/01 00:26:19;;;;;;;1.50;1.40;;;;;;;5.78;100.00;99233.88;4994787;28;20194;-60
2021/12/01 00:28:45;;;;;;;1.27;1.20;;;;;;;5.76;100.00;99243.38;4989248;28;20202;-60
2021/12/01 00:31:10;;;;;;;2.43;1.50;;;;;;;5.76;100.00;99243.38;4954980;28;20274;-60
2021/12/01 00:33:35;;;;;;;1.20;1.20;;;;;;;5.77;100.00;99227.97;5018619;28;20704;-59
2021/12/01 00:36:01;;;;;;;2.53;1.57;;;;;;;5.88;100.00;99237.66;5014921;28;20176;-60
2021/12/01 00:38:28;;;;;;;1.47;1.37;;;;;;;5.92;100.00;99240.91;5014645;28;20703;-60
2021/12/01 00:40:55;;;;;;;1.47;1.37;;;;;;;5.89;100.00;99253.78;5010821;28;20230;-60
2021/12/01 00:43:23;;;;;;;1.13;1.13;;;;;;;5.84;100.00;99246.34;5022888;28;20163;-61
2021/12/01 00:45:54;;;;;;;1.77;1.23;;;;;;;5.91;100.00;99249.44;5011656;28;20187;-60
2021/12/01 00:48:19;;;;;;;2.60;1.60;;;;;;;5.87;100.00;99241.13;4994963;28;20189;-60
2021/12/01 00:50:46;;;;;;;1.30;1.20;;;;;;;5.80;100.00;99255.91;4990225;28;20264;-60
2021/12/01 00:53:11;;;;;;;1.00;1.00;;;;;;;5.86;100.00;99242.00;5003934;28;20195;-60
2021/12/01 00:55:37;;;;;;;1.30;1.20;;;;;;;5.82;100.00;99236.22;4994265;28;20178;-60
2021/12/01 00:58:04;;;;;;;1.13;1.13;;;;;;;5.86;100.00;99239.47;4994382;28;20284;-61
2021/12/01 01:00:32;;;;;;;2.20;1.10;;;;;;;5.93;100.00;99238.25;4987697;28;20615;-60
2021/12/01 01:02:58;;;;;;;1.10;1.10;;;;;;;6.05;100.00;99233.47;5006050;28;20171;-59
2021/12/01 01:05:25;;;;;;;1.30;1.20;;;;;;;5.96;100.00;99229.63;4992897;28;20666;-58
2021/12/01 01:07:51;;;;;;;1.30;1.20;;;;;;;6.05;100.00;99229.19;4994630;28;20197;-59
2021/12/01 01:18:20;;;;;;;1.37;1.27;;;;;;;5.87;100.00;99209.66;4994650;28;20783;-59
2021/12/01 01:20:46;;;;;;;1.33;1.23;;;;;;;5.80;100.00;99201.47;4986458;28;20248;-59
2021/12/01 01:23:11;;;;;;;1.00;1.00;;;;;;;5.74;100.00;99204.31;5003770;28;20201;-58
2021/12/01 01:25:36;;;;;;;1.40;1.00;;;;;;;5.74;100.00;99197.50;4993213;28;20268;-58
2021/12/01 01:28:02;;;;;;;0.80;0.80;;;;;;;5.65;100.00;99201.31;4993535;28;20399;-59
2021/12/01 01:30:28;;;;;;;1.07;0.90;;;;;;;5.66;100.00;99195.31;4967912;28;20314;-59
2021/12/01 01:32:53;;;;;;;0.77;0.77;;;;;;;5.69;100.00;99193.53;5011034;28;20561;-60
2021/12/01 01:35:19;;;;;;;0.70;0.70;;;;;;;5.61;100.00;99191.34;5013328;28;20187;-59
2021/12/01 01:37:44;;;;;;;0.60;0.60;;;;;;;5.65;100.00;99191.09;5028549;28;20207;-59
2021/12/01 01:40:10;;;;;;;1.33;0.70;;;;;;;5.70;100.00;99190.06;5003964;28;20252;-60
2021/12/01 01:42:36;;;;;;;1.13;0.60;;;;;;;5.78;100.00;99185.41;5027697;28;20171;-59
2021/12/01 01:45:03;;;;;;;0.60;0.60;;;;;;;5.78;100.00;99165.81;5028436;28;20182;-60
2021/12/01 01:47:28;;;;;;;0.40;0.40;;;;;;;5.76;100.00;99177.81;4996772;28;20185;-59
2021/12/01 01:50:13;;;;;;;0.50;0.50;;;;;;;5.73;100.00;99174.59;4993781;28;20173;-58
2021/12/01 01:52:38;;;;;;;0.63;0.60;;;;;;;5.74;100.00;99171.16;4982552;28;20224;-60
2021/12/01 01:55:04;;;;;;;0.80;0.80;;;;;;;5.78;100.00;99168.38;5008922;28;20175;-59
2021/12/01 01:57:29;;;;;;;0.57;0.57;;;;;;;5.61;100.00;99158.19;4994084;28;20197;-61
2021/12/01 01:59:55;;;;;;;0.77;0.77;;;;;;;5.65;100.00;99160.47;4993800;28;20259;-61
2021/12/01 02:02:20;;;;;;;0.60;0.60;;;;;;;5.57;100.00;99157.50;4998990;28;20310;-60
2021/12/01 02:04:45;;;;;;;0.63;0.63;;;;;;;5.72;100.00;99160.19;4990723;28;20209;-60
2021/12/01 02:07:11;;;;;;;0.60;0.60;;;;;;;5.55;100.00;99154.19;4993293;28;20220;-61
2021/12/01 02:09:36;;;;;;;0.70;0.70;;;;;;;5.46;100.00;99150.38;4988372;28;20173;-60
2021/12/01 02:12:02;;;;;;;0.53;0.53;;;;;;;5.53;100.00;99144.97;4979449;28;20223;-60
2021/12/01 02:14:29;;;;;;;2.30;0.60;;;;;;;5.40;100.00;99137.09;4988774;28;20685;-61
2021/12/01 02:16:57;;;;;;;0.70;0.70;;;;;;;5.26;100.00;99118.19;4974244;28;20172;-60
2021/12/01 02:19:23;;;;;;;1.00;0.70;;;;;;;5.24;100.00;99114.06;4973054;28;20196;-61
2021/12/01 02:21:48;;;;;;;0.60;0.57;;;;;;;4.97;100.00;99105.13;4982307;28;20265;-59
2021/12/01 02:24:15;;;;;;;0.40;0.40;;;;;;;4.85;100.00;99108.25;4996969;28;20205;-62
2021/12/01 02:26:44;;;;;;;0.63;0.63;;;;;;;4.82;100.00;99100.72;4993483;28;20179;-60
2021/12/01 02:29:17;;;;;;;1.90;0.87;;;;;;;4.78;100.00;99094.13;4984333;28;20218;-59
2021/12/01 02:31:44;;;;;;;0.63;0.63;;;;;;;4.90;100.00;99092.72;4982138;28;20625;-60
2021/12/01 02:34:16;;;;;;;0.43;0.43;;;;;;;4.72;100.00;99067.22;5015112;28;20257;-59
2021/12/01 02:36:45;;;;;;;0.53;0.53;;;;;;;4.76;100.00;99084.00;5013088;28;20175;-59
2021/12/01 02:39:13;;;;;;;1.50;0.80;;;;;;;4.75;100.00;99069.63;5012811;28;20297;-60
2021/12/01 02:41:39;;;;;;;1.10;0.67;;;;;;;4.59;100.00;99071.22;5004128;28;20246;-60
2021/12/01 02:44:06;;;;;;;0.60;0.60;;;;;;;4.65;100.00;99066.69;4994068;28;20206;-60
2021/12/01 02:46:32;;;;;;;0.60;0.60;;;;;;;4.64;100.00;99059.94;5007818;28;20183;-60
2021/12/01 02:48:57;;;;;;;0.57;0.57;;;;;;;4.62;100.00;99053.25;4992811;28;20576;-60
2021/12/01 02:51:28;;;;;;;0.57;0.57;;;;;;;4.61;100.00;99043.97;4993029;28;20242;-60
2021/12/01 02:53:55;;;;;;;0.70;0.70;;;;;;;4.58;100.00;99047.47;4996512;28;20237;-59
2021/12/01 02:56:22;;;;;;;0.73;0.73;;;;;;;4.69;100.00;99047.00;4992688;28;20251;-59
2021/12/01 02:58:49;;;;;;;0.73;0.70;;;;;;;4.66;100.00;99047.13;4992437;28;20191;-58
2021/12/01 03:01:20;;;;;;;0.70;0.70;;;;;;;4.61;100.00;99031.22;4991798;28;20229;-61
2021/12/01 03:03:46;;;;;;;0.80;0.80;;;;;;;4.59;100.00;99027.91;5007423;28;20202;-59
2021/12/01 03:06:12;;;;;;;1.07;0.97;;;;;;;4.63;100.00;99021.81;4992692;28;20389;-59
2021/12/01 03:08:40;;;;;;;1.00;1.00;;;;;;;4.59;100.00;99017.72;4992362;28;20257;-59
2021/12/01 03:11:05;;;;;;;0.93;0.93;;;;;;;4.67;100.00;99015.66;4990561;28;20310;-59
2021/12/01 03:13:31;;;;;;;0.97;0.87;;;;;;;4.60;100.00;98999.84;4999191;28;20632;-59
2021/12/01 03:15:56;;;;;;;1.00;1.00;;;;;;;4.56;100.00;98993.22;5007429;28;20217;-59
2021/12/01 03:18:22;;;;;;;0.90;0.90;;;;;;;4.52;100.00;98987.47;4992028;28;20589;-59
2021/12/01 03:20:48;;;;;;;3.27;1.13;;;;;;;4.48;100.00;98983.41;4987774;28;20778;-59
2021/12/01 03:23:15;;;;;;;4.27;1.30;;;;;;;4.51;100.00;98980.75;4990172;28;20270;-59
2021/12/01 03:25:42;;;;;;;1.40;1.27;;;;;;;4.56;100.00;98984.78;4989896;28;20594;-60
2021/12/01 03:28:08;;;;;;;2.73;1.30;;;;;;;4.45;100.00;98980.19;4991662;28;20330;-60
2021/12/01 03:30:37;;;;;;;3.67;1.50;;;;;;;4.44;100.00;98974.28;4999835;28;20688;-60
2021/12/01 03:33:05;;;;;;;3.93;1.60;;;;;;;4.40;100.00;98980.41;5002151;28;20552;-60
2021/12/01 03:35:31;;;;;;;1.63;1.50;;;;;;;4.46;100.00;98980.09;4991398;28;20198;-60
2021/12/01 03:37:56;;;;;;;2.30;1.70;;;;;;;4.42;100.00;98968.44;4990646;28;20238;-60
2021/12/01 03:40:22;;;;;;;1.93;1.77;;;;;;;4.45;100.00;98970.00;4984195;28;20575;-60
2021/12/01 03:42:47;;;;;;;1.80;1.70;;;;;;;4.49;100.00;98964.69;5004268;28;20168;-60
2021/12/01 03:45:14;;;;;;;2.03;1.83;;;;;;;4.53;100.00;98957.75;4991171;28;20187;-60
2021/12/01 03:47:40;;;;;;;2.27;2.00;;;;;;;4.47;100.00;98955.50;5009287;28;20208;-60
2021/12/01 03:50:07;;;;;;;2.10;1.70;;;;;;;4.61;100.00;98950.53;5001393;28;20167;-60
2021/12/01 03:52:32;;;;;;;2.00;1.90;;;;;;;4.54;100.00;98949.22;5025401;28;20198;-60
2021/12/01 03:54:58;;;;;;;2.07;1.97;;;;;;;4.56;100.00;98939.75;5010768;28;20174;-60
2021/12/01 03:57:24;;;;;;;2.50;2.00;;;;;;;4.61;100.00;98931.91;5010951;28;20166;-60
2021/12/01 03:59:49;;;;;;;2.27;2.00;;;;;;;4.58;100.00;98916.78;5011014;28;20173;-60
2021/12/01 04:02:15;;;;;;;2.27;2.13;;;;;;;4.65;100.00;98918.94;4989315;28;20305;-59
2021/12/01 04:04:40;;;;;;;2.17;1.90;;;;;;;4.62;100.00;98911.44;5010667;28;20217;-60
2021/12/01 04:07:06;;;;;;;2.13;1.90;;;;;;;4.65;100.00;98907.91;5010744;28;20170;-60
2021/12/01 04:09:32;;;;;;;2.20;2.00;;;;;;;4.55;100.00;98894.81;5010785;28;20186;-59
2021/12/01 04:11:58;;;;;;;5.03;2.40;;;;;;;4.58;100.00;98883.66;5015023;28;20227;-59
2021/12/01 04:14:23;;;;;;;2.80;2.50;;;;;;;4.57;100.00;98880.28;5011122;28;20202;-60
2021/12/01 04:16:48;;;;;;;3.20;2.83;;;;;;;4.65;100.00;98868.00;5014325;28;20279;-59
2021/12/01 04:19:14;;;;;;;2.43;2.20;;;;;;;4.62;100.00;98872.41;5012380;28;20281;-60
2021/12/01 04:21:41;;;;;;;4.27;2.40;;;;;;;4.73;100.00;98867.59;5013132;28;20740;-59
2021/12/01 04:24:07;;;;;;;3.40;2.70;;;;;;;4.73;100.00;98875.25;5004601;28;20171;-59
2021/12/01 04:26:33;;;;;;;3.10;2.03;;;;;;;4.76;100.00;98869.19;4991767;28;20258;-60
2021/12/01 04:29:00;;;;;;;2.47;2.27;;;;;;;4.76;100.00;98856.44;4983136;28;20660;-59
2021/12/01 04:31:28;;;;;;;2.53;1.80;;;;;;;4.87;100.00;98845.72;4954266;28;20235;-59
2021/12/01 04:33:54;;;;;;;2.00;1.73;;;;;;;4.84;100.00;98833.94;5014967;28;20218;-60
2021/12/01 04:36:21;;;;;;;2.87;1.87;;;;;;;4.99;100.00;98824.69;5010775;28;20171;-59
2021/12/01 04:38:46;;;;;;;2.50;2.30;;;;;;;5.00;100.00;98828.88;5010416;28;20213;-60
2021/12/01 04:41:13;;;;;;;2.43;2.07;;;;;;;5.15;100.00;98835.72;5009184;28;20309;-60
2021/12/01 04:43:40;;;;;;;1.93;1.83;;;;;;;5.10;100.00;98819.84;5025361;28;20175;-60
2021/12/01 04:46:06;;;;;;;2.63;2.20;;;;;;;5.15;100.00;98819.63;5005386;28;20592;-59
2021/12/01 04:48:32;;;;;;;2.23;2.03;;;;;;;5.14;100.00;98821.31;4992010;28;20290;-59
2021/12/01 04:50:59;;;;;;;2.00;1.80;;;;;;;5.10;100.00;98812.19;4991638;28;20224;-60
2021/12/01 04:53:25;;;;;;;2.03;1.70;;;;;;;5.13;100.00;98804.38;5002015;28;20199;-59
2021/12/01 04:55:52;;;;;;;2.80;1.70;;;;;;;5.01;100.00;98805.88;4994539;28;20685;-59
2021/12/01 04:58:18;;;;;;;1.93;1.77;;;;;;;5.16;100.00;98800.88;4994426;28;20246;-60
2021/12/01 05:00:43;;;;;;;1.60;1.50;;;;;;;5.22;100.00;98794.59;4989426;28;20250;-60
2021/12/01 05:03:08;;;;;;;1.97;1.67;;;;;;;5.12;100.00;98797.66;5004250;28;20203;-60
2021/12/01 05:05:33;;;;;;;1.80;1.70;;;;;;;5.09;100.00;98794.44;4993996;28;20221;-60
2021/12/01 05:07:59;;;;;;;1.70;1.40;;;;;;;5.34;100.00;98786.31;4994232;28;20215;-60
2021/12/01 05:10:24;;;;;;;1.90;1.70;;;;;;;5.21;100.00;98781.06;4987019;28;20784;-59
2021/12/01 05:12:50;;;;;;;2.10;1.90;;;;;;;5.12;100.00;98774.72;5006326;28;20202;-59
2021/12/01 05:15:15;;;;;;;1.87;1.70;;;;;;;5.13;100.00;98778.88;4994005;28;20195;-60
2021/12/01 05:17:41;;;;;;;3.30;1.87;;;;;;;5.11;100.00;98770.53;4994041;28;20319;-60
2021/12/01 05:20:08;;;;;;;1.80;1.70;;;;;;;5.23;100.00;98776.66;4984597;28;20182;-60
2021/12/01 05:22:34;;;;;;;2.47;1.70;;;;;;;5.25;100.00;98769.78;5008106;28;20664;-59
2021/12/01 05:25:00;;;;;;;2.00;1.80;;;;;;;5.18;100.00;98776.09;4996775;28;20186;-60
2021/12/01 05:27:25;;;;;;;2.00;1.80;;;;;;;5.23;100.00;98775.88;4994698;28;20172;-60
2021/12/01 05:29:51;;;;;;;2.17;1.77;;;;;;;5.20;100.00;98763.25;5008739;28;20729;-60
2021/12/01 05:32:17;;;;;;;2.40;2.00;;;;;;;5.19;100.00;98754.81;5001773;28;20253;-59
2021/12/01 05:34:43;;;;;;;1.93;1.83;;;;;;;5.20;100.00;98759.00;4979123;28;20177;-60
2021/12/01 05:37:08;;;;;;;3.63;2.07;;;;;;;5.20;100.00;98750.53;4992328;28;20686;-60
2021/12/01 05:39:34;;;;;;;4.23;2.50;;;;;;;5.13;100.00;98747.50;4972944;28;20266;-59
2021/12/01 05:42:00;;;;;;;2.33;2.13;;;;;;;5.14;100.00;98731.28;4979101;28;20232;-59
2021/12/01 05:44:26;;;;;;;2.50;2.30;;;;;;;5.12;100.00;98738.19;4991222;28;20250;-59
2021/12/01 05:46:51;;;;;;;2.50;2.30;;;;;;;5.22;100.00;98730.88;4994981;28;20266;-59
2021/12/01 05:49:17;;;;;;;3.90;2.50;;;;;;;5.20;100.00;98722.47;4991933;28;20210;-59
2021/12/01 05:51:43;;;;;;;2.40;2.20;;;;;;;5.23;100.00;98730.78;4996156;28;20219;-59
2021/12/01 05:54:09;;;;;;;3.27;2.97;;;;;;;5.16;100.00;98720.09;4987501;28;20550;-59
2021/12/01 05:56:35;;;;;;;4.27;2.77;;;;;;;5.12;100.00;98713.53;4993087;28;20200;-59
2021/12/01 05:59:00;;;;;;;2.70;2.50;;;;;;;5.18;100.00;98709.81;4976887;28;20205;-59
2021/12/01 06:01:26;;;;;;;2.50;2.30;;;;;;;5.21;100.00;98717.31;4981070;28;20233;-59
2021/12/01 06:03:51;;;;;;;2.97;2.63;;;;;;;5.25;100.00;98707.78;4977774;28;20181;-59
2021/12/01 06:06:16;;;;;;;3.10;2.80;;;;;;;5.33;100.00;98705.59;4988464;28;20218;-59
2021/12/01 06:08:42;;;;;;;4.50;2.97;;;;;;;5.25;100.00;98702.69;4988523;28;20207;-59
2021/12/01 06:11:08;;;;;;;3.00;2.70;;;;;;;5.22;100.00;98692.63;4971788;28;20696;-58
2021/12/01 06:13:33;;;;;;;3.20;2.90;;;;;;;5.22;100.00;98688.38;4980062;28;20195;-59
2021/12/01 06:15:59;;;;;;;3.23;2.93;;;;;;;5.25;100.00;98675.44;4973537;28;20183;-59
2021/12/01 06:18:24;;;;;;;3.27;2.67;;;;;;;5.22;100.00;98674.78;4995292;28;20203;-59
2021/12/01 06:20:49;;;;;;;2.70;2.50;;;;;;;5.16;100.00;98665.75;4991392;28;20658;-59
2021/12/01 06:23:15;;;;;;;2.70;2.50;;;;;;;5.16;100.00;98663.22;4999905;28;20897;-59
2021/12/01 06:25:40;;;;;;;2.67;2.47;;;;;;;5.20;100.00;98662.13;4991306;28;20715;-58
2021/12/01 06:28:05;;;;;;;3.77;2.80;;;;;;;5.25;100.00;98662.69;4991949;28;20203;-58
2021/12/01 06:30:33;;;;;;;3.77;2.87;;;;;;;5.24;100.00;98655.94;4982128;28;20517;-58
2021/12/01 06:32:59;;;;;;;3.00;2.50;;;;;;;5.29;100.00;98645.50;5010951;28;20199;-58
2021/12/01 06:35:24;;;;;;;2.70;2.50;;;;;;;5.35;100.00;98647.69;5027396;28;20173;-60
2021/12/01 06:37:56;;;;;;;4.43;2.40;;;;;;;5.47;100.00;98634.25;5012292;28;20730;-59
2021/12/01 06:40:25;;;;;;;2.97;2.60;;;;;;;5.36;99.49;98639.16;5019492;28;20221;-60
2021/12/01 06:42:51;;;;;;;4.27;2.90;;;;;;;5.31;99.84;98620.75;5024354;28;20172;-59
2021/12/01 06:45:19;;;;;;;2.90;2.43;;;;;;;5.22;99.76;98611.06;5011764;28;20171;-59
2021/12/01 06:47:46;;;;;;;4.13;2.80;;;;;;;5.23;100.00;98605.84;4993291;28;20191;-60
2021/12/01 06:50:12;;;;;;;3.03;2.37;;;;;;;5.25;99.87;98593.84;4982182;28;20513;-60
2021/12/01 06:52:40;;;;;;;3.80;2.80;;;;;;;5.28;99.34;98585.22;5006062;28;20192;-59
2021/12/01 06:55:08;;;;;;;3.17;2.87;;;;;;;5.25;98.97;98576.00;4991927;28;20548;-59
2021/12/01 06:57:33;;;;;;;4.53;2.27;;;;;;;5.27;98.96;98578.47;5007507;28;20207;-58
2021/12/01 06:59:59;;;;;;;3.90;2.90;;;;;;;5.34;98.73;98572.91;4992745;28;20168;-59
2021/12/01 07:02:25;;;;;;;3.20;2.53;;;;;;;5.29;98.90;98577.47;4997490;28;20908;-62
2021/12/01 07:04:51;;;;;;;3.90;2.70;;;;;;;5.33;98.78;98575.56;4992078;28;20180;-58
2021/12/01 07:07:16;;;;;;;3.63;2.70;;;;;;;5.24;98.65;98568.47;4992074;28;20534;-59
2021/12/01 07:09:45;;;;;;;2.20;2.00;;;;;;;5.25;98.82;98567.56;4992080;28;20525;-59
2021/12/01 07:12:11;;;;;;;2.47;2.27;;;;;;;5.25;99.22;98570.09;4979776;28;20218;-58
2021/12/01 07:14:36;;;;;;;3.60;2.33;;;;;;;5.25;98.99;98567.56;4990814;28;20279;-58
2021/12/01 07:17:02;;;;;;;5.37;2.33;;;;;;;5.26;98.84;98557.25;4989882;28;20295;-60
2021/12/01 07:19:27;;;;;;;3.30;2.27;;;;;;;5.30;98.71;98548.50;4991063;28;20222;-58
2021/12/01 07:21:52;;;;;;;2.27;1.87;;;;;;;5.29;98.80;98530.75;4995632;28;20624;-58
2021/12/01 07:24:20;;;;;;;2.10;1.83;;;;;;;5.29;98.20;98530.75;4990877;28;20182;-58
2021/12/01 07:26:46;;;;;;;2.93;1.80;;;;;;;5.26;98.62;98513.91;4989279;28;20659;-58
2021/12/01 07:29:11;;;;;;;2.50;1.97;;;;;;;5.26;98.50;98511.38;4990825;28;20199;-58
2021/12/01 07:35:17;;;;;;;4.20;1.70;;;;;;;5.30;97.95;98497.53;4990004;28;20244;-58
2021/12/01 07:37:44;;;;;;;1.93;1.67;;;;;;;5.33;98.09;98487.16;4987300;28;20579;-59
2021/12/01 07:40:10;;;;;;;2.23;2.03;;;;;;;5.36;98.83;98495.53;4980882;28;20197;-56
2021/12/01 07:42:35;;;;;;;3.80;2.13;;;;;;;5.44;98.43;98483.94;4990365;28;20164;-59
2021/12/01 07:45:01;;;;;;;3.23;1.70;;;;;;;5.50;97.92;98480.22;4989807;28;20191;-60
2021/12/01 07:47:26;;;;;;;2.03;1.80;;;;;;;5.54;97.56;98478.31;4992752;28;20175;-59
2021/12/01 07:49:51;;;;;;;3.50;1.73;;;;;;;5.54;97.79;98471.47;4976631;28;20933;-59
2021/12/01 07:52:16;;;;;;;1.50;1.30;;;;;;;5.57;97.61;98461.09;4992328;28;20235;-59
2021/12/01 07:54:42;;;;;;;1.50;1.40;;;;;;;5.50;97.45;98454.72;4991207;28;20192;-59
2021/12/01 07:57:08;;;;;;;1.90;1.33;;;;;;;5.50;98.50;98462.38;4990232;28;20659;-60
2021/12/01 07:59:34;;;;;;;2.67;1.60;;;;;;;5.57;98.08;98460.25;4991796;28;20239;-60
2021/12/01 08:01:59;;;;;;;2.37;1.40;;;;;;;5.69;97.78;98476.56;4979078;28;20239;-61
2021/12/01 08:04:25;;;;;;;3.97;1.33;;;;;;;5.62;97.60;98456.53;4972655;28;20180;-58
2021/12/01 08:06:50;;;;;;;1.40;1.30;;;;;;;5.70;97.68;98450.16;4971958;28;20181;-58
2021/12/01 08:09:16;;;;;;;2.00;1.60;;;;;;;5.70;97.57;98443.31;4970723;28;20194;-58
2021/12/01 08:11:42;;;;;;;1.97;1.70;;;;;;;5.76;97.88;98434.47;4990671;28;20228;-59
2021/12/01 08:14:07;;;;;;;1.77;1.67;;;;;;;5.82;97.63;98436.66;4991721;28;20274;-58
2021/12/01 08:16:36;;;;;;;1.30;1.20;;;;;;;5.89;97.33;98430.25;4982781;28;20226;-59
2021/12/01 08:19:03;;;;;;;1.30;1.20;;;;;;;5.78;97.44;98440.28;5004766;28;20283;-58
2021/12/01 08:21:28;;;;;;;3.53;1.30;;;;;;;5.81;97.53;98443.47;4991453;28;20700;-59
2021/12/01 08:23:53;;;;;;;1.90;1.60;;;;;;;5.79;97.94;98424.91;4996375;28;20184;-58
2021/12/01 08:26:20;;;;;;;1.70;1.60;;;;;;;5.79;98.27;98408.75;4995118;28;20202;-60
2021/12/01 08:28:47;;;;;;;2.17;1.27;;;;;;;5.75;98.18;98428.53;4994665;28;20207;-60
2021/12/01 08:31:14;;;;;;;1.40;1.30;;;;;;;5.74;98.74;98426.94;4983521;28;20352;-59
2021/12/01 08:33:40;;;;;;;1.40;1.30;;;;;;;5.83;98.33;98420.44;5012777;28;20208;-60
2021/12/01 08:36:06;;;;;;;1.77;1.10;;;;;;;5.93;98.38;98418.94;5014295;28;20629;-60
2021/12/01 08:38:32;;;;;;;1.40;1.30;;;;;;;5.91;97.69;98420.75;5014263;28;20207;-59
2021/12/01 08:40:58;;;;;;;1.43;1.20;;;;;;;5.94;97.52;98419.75;5011446;28;20650;-60
2021/12/01 08:43:23;;;;;;;1.80;1.27;;;;;;;5.99;97.31;98422.84;5015864;28;20174;-60
2021/12/01 08:45:48;;;;;;;0.83;0.83;;;;;;;6.09;97.29;98406.06;4994186;28;20189;-60
2021/12/01 08:48:14;;;;;;;1.10;1.00;;;;;;;6.08;96.46;98406.16;4991748;28;20711;-60
2021/12/01 08:50:40;;;;;;;1.00;1.00;;;;;;;5.94;97.46;98405.28;4987907;28;20228;-59
2021/12/01 08:53:05;;;;;;;2.03;1.13;;;;;;;6.00;97.10;98405.81;5003641;28;20280;-60
2021/12/01 08:55:30;;;;;;;1.80;1.23;;;;;;;6.16;96.83;98414.16;4994236;28;20658;-60
2021/12/01 08:57:56;;;;;;;1.13;1.03;;;;;;;6.11;96.86;98393.19;4993173;28;20208;-59
2021/12/01 09:00:21;;;;;;;1.07;0.97;;;;;;;6.10;96.66;98392.38;4986066;28;20248;-60
2021/12/01 09:02:47;;;;;;;0.80;0.80;;;;;;;6.13;97.08;98391.38;5007183;28;20290;-60
2021/12/01 09:05:13;;;;;;;1.80;0.90;;;;;;;6.22;96.58;98378.00;4994284;28;20176;-60
2021/12/01 09:07:39;;;;;;;0.90;0.90;;;;;;;6.29;96.38;98371.59;4993473;28;20191;-60
2021/12/01 09:10:06;;;;;;;1.33;0.80;;;;;;;6.22;96.41;98370.34;4983739;28;20192;-61
2021/12/01 09:12:32;;;;;;;0.97;0.97;;;;;;;6.39;95.93;98358.25;5008980;28;20238;-58
2021/12/01 09:14:57;;;;;;;1.30;1.20;;;;;;;6.36;94.83;98348.22;4992899;28;20424;-59
2021/12/01 09:17:26;;;;;;;1.67;1.10;;;;;;;6.36;95.70;98338.00;4984557;28;20189;-59
2021/12/01 09:19:52;;;;;;;1.30;1.20;;;;;;;6.38;95.78;98339.53;4993928;28;20197;-59
2021/12/01 09:22:18;;;;;;;1.33;1.23;;;;;;;6.51;95.49;98339.56;5006974;28;20221;-59
2021/12/01 09:24:45;;;;;;;1.60;1.30;;;;;;;6.53;94.97;98327.50;4992901;28;20170;-59
2021/12/01 09:27:10;;;;;;;1.10;1.00;;;;;;;6.49;94.51;98320.97;4985016;28;20184;-59
2021/12/01 09:29:36;;;;;;;1.27;1.10;;;;;;;6.48;94.79;98329.53;4993753;28;20659;-60
2021/12/01 09:32:02;;;;;;;1.60;1.50;;;;;;;6.72;94.13;98316.03;4995804;28;20229;-59
2021/12/01 09:34:28;;;;;;;1.27;1.17;;;;;;;6.71;93.41;98322.06;4992059;28;20241;-60
2021/12/01 09:36:53;;;;;;;0.90;0.80;;;;;;;6.68;93.73;98307.75;4993220;28;20543;-59
2021/12/01 09:39:19;;;;;;;1.10;1.00;;;;;;;6.66;93.26;98293.47;4993721;28;20210;-60
2021/12/01 09:41:45;;;;;;;0.93;0.80;;;;;;;6.71;92.89;98293.97;5001821;28;20926;-60
2021/12/01 09:44:10;;;;;;;1.87;0.80;;;;;;;6.62;93.40;98285.19;4995484;28;20178;-59
2021/12/01 09:46:36;;;;;;;2.47;0.80;;;;;;;6.71;93.37;98284.56;5002910;28;20178;-60
2021/12/01 09:49:02;;;;;;;1.57;1.00;;;;;;;6.72;93.04;98283.66;5013227;28;20201;-60
2021/12/01 09:51:27;;;;;;;0.73;0.73;;;;;;;6.75;92.71;98287.75;4995896;28;20223;-60
2021/12/01 09:53:54;;;;;;;1.10;0.90;;;;;;;6.84;92.72;98276.88;4996740;28;20210;-59
2021/12/01 09:56:20;;;;;;;0.80;0.80;;;;;;;6.81;92.83;98276.25;4993659;28;20648;-62
2021/12/01 09:58:46;;;;;;;1.63;0.93;;;;;;;6.82;92.77;98275.34;4993050;28;20206;-59
2021/12/01 10:01:17;;;;;;;0.80;0.80;;;;;;;6.85;92.31;98270.84;4992144;28;20225;-59
2021/12/01 10:03:44;;;;;;;1.00;0.90;;;;;;;6.98;91.99;98270.00;5008950;28;20206;-60
2021/12/01 10:06:13;;;;;;;1.20;1.00;;;;;;;7.01;91.76;98257.84;4993727;28;20174;-59
2021/12/01 10:08:42;;;;;;;1.13;0.93;;;;;;;7.16;91.02;98245.72;4993416;28;20678;-59
2021/12/01 10:11:13;;;;;;;1.47;1.20;;;;;;;7.22;90.18;98241.91;4991571;28;20225;-59
2021/12/01 10:13:54;;;;;;;1.33;1.03;;;;;;;7.21;89.52;98235.16;5007594;28;20196;-59
2021/12/01 10:16:21;;;;;;;1.73;1.17;;;;;;;7.44;89.20;98230.97;4974421;28;20598;-59
2021/12/01 10:18:49;;;;;;;1.67;1.30;;;;;;;7.43;89.17;98214.81;4973834;28;20220;-59
2021/12/01 10:21:19;;;;;;;1.40;1.10;;;;;;;7.36;89.42;98200.81;4997427;28;20363;-59
2021/12/01 10:23:56;;;;;;;3.70;1.60;;;;;;;7.37;89.66;98201.66;4997766;28;20168;-60
2021/12/01 10:26:46;;;;;;;2.80;1.63;;;;;;;7.29;90.30;98202.19;4992569;28;20175;-60
2021/12/01 10:29:15;;;;;;;1.77;1.40;;;;;;;7.22;90.70;98203.56;4989436;28;20214;-60
2021/12/01 10:32:12;;;;;;;4.40;2.10;;;;;;;7.31;90.37;98194.41;4986640;28;20250;-60
2021/12/01 10:34:47;;;;;;;3.87;2.23;;;;;;;7.37;90.04;98199.09;4970520;28;20263;-60
2021/12/01 10:37:30;;;;;;;5.60;2.77;;;;;;;7.32;90.07;98196.03;4970724;28;20521;-60
2021/12/01 10:40:12;;;;;;;3.57;1.57;;;;;;;7.30;90.17;98192.78;4970838;28;20625;-60
2021/12/01 10:42:59;;;;;;;4.87;2.40;;;;;;;7.34;90.03;98195.00;4960887;28;20262;-60
2021/12/01 10:45:31;;;;;;;3.00;2.00;;;;;;;7.39;89.98;98195.50;4954164;28;20211;-60
2021/12/01 10:47:57;;;;;;;4.90;2.17;;;;;;;7.43;89.91;98191.78;4931803;29;20194;-60
2021/12/01 10:50:26;;;;;;;4.70;2.17;;;;;;;7.33;89.86;98192.53;4940390;28;20218;-60
2021/12/01 10:52:54;;;;;;;2.07;1.80;;;;;;;7.40;89.74;98189.44;4951300;29;20208;-60
2021/12/01 10:55:22;;;;;;;2.10;1.33;;;;;;;7.56;89.59;98181.47;4951097;29;20300;-60
2021/12/01 10:57:54;;;;;;;4.37;2.70;;;;;;;7.52;89.22;98177.50;4949486;29;20968;-60
2021/12/01 11:00:34;;;;;;;6.57;3.53;;;;;;;7.55;89.42;98159.38;4940935;28;20208;-60
2021/12/01 11:03:17;;;;;;;3.40;1.73;;;;;;;7.64;89.42;98159.63;4951011;29;20183;-60
2021/12/01 11:05:49;;;;;;;2.53;1.40;;;;;;;7.65;89.56;98153.59;4950501;29;20261;-60
2021/12/01 11:08:19;;;;;;;5.67;3.20;;;;;;;7.76;88.64;98140.81;4950710;29;20211;-60
2021/12/01 11:10:50;;;;;;;6.37;3.53;;;;;;;7.65;88.91;98128.78;4972225;28;20250;-60
2021/12/01 11:13:16;;;;;;;5.97;3.30;;;;;;;7.67;89.41;98128.69;4999156;28;20285;-60
2021/12/01 11:15:44;;;;;;;5.27;2.70;;;;;;;7.79;88.99;98119.28;4990611;28;20177;-60
2021/12/01 11:18:22;;;;;;;4.87;2.37;;;;;;;7.96;88.30;98115.47;4990481;28;20218;-60
2021/12/01 11:20:49;;;;;;;9.50;3.73;;;;;;;7.84;88.24;98117.19;4986083;28;20281;-60
2021/12/01 11:23:21;;;;;;;2.83;1.97;;;;;;;8.07;87.98;98113.72;4997872;28;20207;-60
2021/12/01 11:25:56;;;;;;;1.30;1.20;;;;;;;8.09;87.21;98095.69;4987794;28;20182;-60
2021/12/01 11:28:25;;;;;;;1.50;1.17;;;;;;;8.05;87.13;98078.91;4980675;28;20244;-59
2021/12/01 11:30:56;;;;;;;0.80;0.80;;;;;;;7.89;87.28;98081.84;4980769;28;20207;-60
2021/12/01 11:33:22;;;;;;;0.80;0.80;;;;;;;7.83;87.60;98072.88;5004163;28;20202;-57
2021/12/01 11:35:51;;;;;;;3.37;0.83;;;;;;;8.36;86.57;98063.72;4993527;28;20187;-59
2021/12/01 11:38:18;;;;;;;0.87;0.70;;;;;;;8.22;86.16;98057.13;4992438;28;20645;-60
2021/12/01 11:40:44;;;;;;;0.70;0.70;;;;;;;8.30;86.24;98059.91;4982441;28;20234;-61
2021/12/01 11:43:11;;;;;;;1.07;0.70;;;;;;;8.33;86.71;98054.53;4989675;28;20207;-61
2021/12/01 11:45:39;;;;;;;1.10;0.60;;;;;;;8.38;85.74;98039.66;4990932;28;20183;-60
2021/12/01 11:48:09;;;;;;;0.73;0.60;;;;;;;8.40;85.28;98032.63;4994232;28;20191;-59